createdAt,value
2023-01-21T00:01:19.632Z,87.90
2023-01-21T00:03:49.310Z,87.90
2023-01-21T00:06:17.657Z,87.90
2023-01-21T00:08:45.850Z,87.90
2023-01-21T00:11:16.513Z,87.90
2023-01-21T00:13:45.511Z,88.00
2023-01-21T00:16:14.726Z,88.00
2023-01-21T00:18:43.387Z,88.10
2023-01-21T00:21:12.993Z,88.00
2023-01-21T00:23:41.644Z,88.00
2023-01-21T00:26:12.548Z,88.00
2023-01-21T00:28:43.837Z,88.00
2023-01-21T00:31:13.090Z,88.00
2023-01-21T00:33:41.341Z,88.00
2023-01-21T00:36:13.827Z,87.90
2023-01-21T00:38:42.314Z,87.90
2023-01-21T00:41:13.259Z,87.90
2023-01-21T00:43:42.535Z,88.00
2023-01-21T00:46:11.196Z,88.00
2023-01-21T00:48:40.378Z,87.90
2023-01-21T00:51:08.704Z,88.80
2023-01-21T00:53:41.851Z,87.90
2023-01-21T00:56:11.883Z,87.90
2023-01-21T00:58:43.281Z,88.00
2023-01-21T01:01:14.437Z,87.90
2023-01-21T01:03:43.079Z,87.90
2023-01-21T01:06:13.690Z,87.90
2023-01-21T01:08:43.734Z,87.90
2023-01-21T01:11:12.576Z,87.90
2023-01-21T01:13:41.426Z,87.90
2023-01-21T01:16:11.625Z,87.80
2023-01-21T01:18:40.232Z,88.70
2023-01-21T01:21:12.476Z,87.90
2023-01-21T01:23:40.899Z,87.90
2023-01-21T01:26:13.168Z,87.90
2023-01-21T01:28:41.450Z,87.90
2023-01-21T01:31:12.927Z,87.90
2023-01-21T01:33:41.498Z,87.90
2023-01-21T01:36:14.116Z,87.80
2023-01-21T01:38:42.578Z,87.90
2023-01-21T01:41:16.107Z,87.90
2023-01-21T01:43:53.484Z,88.70
2023-01-21T01:46:22.306Z,87.90
2023-01-21T01:48:55.728Z,87.90
2023-01-21T01:51:29.049Z,87.80
2023-01-21T01:53:57.301Z,87.80
2023-01-21T01:56:28.807Z,87.80
2023-01-21T01:58:57.197Z,87.80
2023-01-21T02:01:25.644Z,87.80
2023-01-21T02:03:59.555Z,87.80
2023-01-21T02:06:28.432Z,87.80
2023-01-21T02:08:58.104Z,87.80
2023-01-21T02:11:27.766Z,87.90
2023-01-21T02:13:59.902Z,87.80
2023-01-21T02:16:57.018Z,87.90
2023-01-21T02:19:56.840Z,87.90
2023-01-21T02:22:31.396Z,87.90
2023-01-21T02:25:32.054Z,87.90
2023-01-21T02:28:38.695Z,87.90
2023-01-21T02:31:31.828Z,87.80
2023-01-21T02:34:16.712Z,87.90
2023-01-21T02:37:06.338Z,87.80
2023-01-21T02:39:56.194Z,87.80
2023-01-21T02:42:30.388Z,87.90
2023-01-21T02:45:05.530Z,87.80
2023-01-21T02:47:41.821Z,87.80
2023-01-21T02:50:15.958Z,87.80
2023-01-21T02:52:44.365Z,87.80
2023-01-21T02:55:16.939Z,87.70
2023-01-21T02:57:48.773Z,87.80
2023-01-21T03:00:19.712Z,87.70
2023-01-21T03:03:23.814Z,87.80
2023-01-21T03:06:31.163Z,87.70
2023-01-21T03:09:06.278Z,87.80
2023-01-21T03:11:34.751Z,87.80
2023-01-21T03:14:27.100Z,87.70
2023-01-21T03:17:00.758Z,87.70
2023-01-21T03:19:38.243Z,87.80
2023-01-21T03:22:12.323Z,87.70
2023-01-21T03:24:44.039Z,87.70
2023-01-21T03:27:17.431Z,87.80
2023-01-21T03:29:48.001Z,87.80
2023-01-21T03:32:19.475Z,87.80
2023-01-21T03:34:52.767Z,87.80
2023-01-21T03:37:29.554Z,87.80
2023-01-21T03:40:10.155Z,87.70
2023-01-21T03:42:38.779Z,87.70
2023-01-21T03:45:08.587Z,87.70
2023-01-21T03:47:38.734Z,87.70
2023-01-21T03:50:09.660Z,87.80
2023-01-21T03:52:41.217Z,87.70
2023-01-21T03:55:11.070Z,87.80
2023-01-21T03:57:39.616Z,87.70
2023-01-21T04:00:09.500Z,87.70
2023-01-21T04:02:37.762Z,87.70
2023-01-21T04:05:06.764Z,87.70
2023-01-21T04:07:35.003Z,87.70
2023-01-21T04:10:05.014Z,87.70
2023-01-21T04:12:33.461Z,87.70
2023-01-21T04:15:04.216Z,87.70
2023-01-21T04:17:33.479Z,88.40
2023-01-21T04:20:01.739Z,88.50
2023-01-21T04:22:29.940Z,87.70
2023-01-21T04:24:58.254Z,87.50
2023-01-21T04:27:27.840Z,87.50
2023-01-21T04:29:56.046Z,87.50
2023-01-21T04:32:24.291Z,87.50
2023-01-21T04:34:52.553Z,87.50
2023-01-21T04:37:20.748Z,87.50
2023-01-21T04:39:49.058Z,87.60
2023-01-21T04:42:17.387Z,87.60
2023-01-21T04:44:47.563Z,87.60
2023-01-21T04:47:15.875Z,87.50
2023-01-21T04:49:44.096Z,87.50
2023-01-21T04:52:12.632Z,88.30
2023-01-21T04:54:40.794Z,87.50
2023-01-21T04:57:08.940Z,87.40
2023-01-21T04:59:37.150Z,87.40
2023-01-21T05:02:06.773Z,87.50
2023-01-21T05:04:34.974Z,87.50
2023-01-21T05:07:03.181Z,87.50
2023-01-21T05:09:31.410Z,87.50
2023-01-21T05:11:59.543Z,87.50
2023-01-21T05:14:27.772Z,87.50
2023-01-21T05:16:55.998Z,87.50
2023-01-21T05:19:25.548Z,87.60
2023-01-21T05:21:53.846Z,87.50
2023-01-21T05:24:22.412Z,87.60
2023-01-21T05:26:50.745Z,87.50
2023-01-21T05:29:19.094Z,87.50
2023-01-21T05:31:47.311Z,87.50
2023-01-21T05:34:15.502Z,87.50
2023-01-21T05:36:45.089Z,87.50
2023-01-21T05:39:13.425Z,87.50
2023-01-21T05:41:41.595Z,87.50
2023-01-21T05:44:10.408Z,87.50
2023-01-21T05:46:38.673Z,87.60
2023-01-21T05:49:06.825Z,87.50
2023-01-21T05:51:35.056Z,87.50
2023-01-21T05:54:04.879Z,87.50
2023-01-21T05:56:33.065Z,87.60
2023-01-21T05:59:01.305Z,87.60
2023-01-21T06:01:29.506Z,87.70
2023-01-21T06:03:57.905Z,87.70
2023-01-21T06:06:26.276Z,87.70
2023-01-21T06:08:54.461Z,87.70
2023-01-21T06:11:24.629Z,87.80
2023-01-21T06:13:52.847Z,88.60
2023-01-21T06:16:21.202Z,87.70
2023-01-21T06:18:49.430Z,87.70
2023-01-21T06:21:17.580Z,87.80
2023-01-21T06:23:45.779Z,87.80
2023-01-21T06:26:14.022Z,87.80
2023-01-21T06:28:43.627Z,87.80
2023-01-21T06:31:11.988Z,87.80
2023-01-21T06:33:40.171Z,88.10
2023-01-21T06:36:09.191Z,87.80
2023-01-21T06:38:37.573Z,87.80
2023-01-21T06:41:06.097Z,87.80
2023-01-21T06:43:34.271Z,87.80
2023-01-21T06:46:03.917Z,87.80
2023-01-21T06:48:32.194Z,87.80
2023-01-21T06:51:01.461Z,87.80
2023-01-21T06:53:29.659Z,87.80
2023-01-21T06:55:57.820Z,87.80
2023-01-21T06:58:26.052Z,87.90
2023-01-21T07:00:57.279Z,87.80
2023-01-21T07:03:26.883Z,87.80
2023-01-21T07:05:55.114Z,87.70
2023-01-21T07:08:23.348Z,87.80
2023-01-21T07:10:51.547Z,87.80
2023-01-21T07:13:19.867Z,87.80
2023-01-21T07:15:48.126Z,87.80
2023-01-21T07:18:16.431Z,87.70
2023-01-21T07:20:46.173Z,87.70
2023-01-21T07:23:14.369Z,87.70
2023-01-21T07:25:43.059Z,87.70
2023-01-21T07:28:11.297Z,87.70
2023-01-21T07:30:39.536Z,87.70
2023-01-21T07:33:08.103Z,88.40
2023-01-21T07:35:36.683Z,87.70
2023-01-21T07:38:06.464Z,87.60
2023-01-21T07:40:34.684Z,87.60
2023-01-21T07:43:02.960Z,88.40
2023-01-21T07:45:31.384Z,87.60
2023-01-21T07:48:00.159Z,87.50
2023-01-21T07:50:28.819Z,87.50
2023-01-21T07:52:57.081Z,87.50
2023-01-21T07:55:26.879Z,87.50
2023-01-21T07:57:57.239Z,87.50
2023-01-21T08:00:27.091Z,87.40
2023-01-21T08:02:56.231Z,87.40
2023-01-21T08:05:25.939Z,87.40
2023-01-21T08:07:57.624Z,87.40
2023-01-21T08:10:27.534Z,87.40
2023-01-21T08:12:55.813Z,87.40
2023-01-21T08:15:24.077Z,87.30
2023-01-21T08:17:52.235Z,87.40
2023-01-21T08:20:20.550Z,87.40
2023-01-21T08:22:48.832Z,87.40
2023-01-21T08:25:17.751Z,87.40
2023-01-21T08:27:47.502Z,87.30
2023-01-21T08:30:16.693Z,88.10
2023-01-21T08:32:46.071Z,87.30
2023-01-21T08:35:14.389Z,87.20
2023-01-21T08:37:42.724Z,87.20
2023-01-21T08:40:12.367Z,87.20
2023-01-21T08:42:40.556Z,87.10
2023-01-21T08:45:12.365Z,87.10
2023-01-21T08:47:41.955Z,87.10
2023-01-21T08:50:11.706Z,87.00
2023-01-21T08:52:40.032Z,86.90
2023-01-21T08:55:08.766Z,86.80
2023-01-21T08:57:36.949Z,86.80
2023-01-21T09:00:06.184Z,87.60
2023-01-21T09:02:35.737Z,86.80
2023-01-21T09:05:04.010Z,86.80
2023-01-21T09:07:32.262Z,86.80
2023-01-21T09:10:00.484Z,86.90
2023-01-21T09:12:28.786Z,86.80
2023-01-21T09:14:57.022Z,86.70
2023-01-21T09:17:25.343Z,86.70
2023-01-21T09:19:55.580Z,86.60
2023-01-21T09:22:23.994Z,86.60
2023-01-21T09:24:52.273Z,86.40
2023-01-21T09:27:20.970Z,86.30
2023-01-21T09:29:49.162Z,86.30
2023-01-21T09:32:17.498Z,86.40
2023-01-21T09:34:45.809Z,86.30
2023-01-21T09:37:15.427Z,86.20
2023-01-21T09:39:43.743Z,86.10
2023-01-21T09:42:19.987Z,86.20
2023-01-21T09:44:52.112Z,86.30
2023-01-21T09:47:24.517Z,86.10
2023-01-21T09:49:55.386Z,86.10
2023-01-21T09:52:30.355Z,85.90
2023-01-21T09:54:59.745Z,86.00
2023-01-21T09:58:06.488Z,86.00
2023-01-21T10:00:39.976Z,86.10
2023-01-21T10:03:22.740Z,86.00
2023-01-21T10:06:17.970Z,86.00
2023-01-21T10:09:15.780Z,85.70
2023-01-21T10:12:06.715Z,85.90
2023-01-21T10:15:01.194Z,85.70
2023-01-21T10:17:42.203Z,85.80
2023-01-21T10:20:17.081Z,85.60
2023-01-21T10:22:51.019Z,85.40
2023-01-21T10:25:26.580Z,85.20
2023-01-21T10:27:56.367Z,85.10
2023-01-21T10:30:28.888Z,85.10
2023-01-21T10:32:57.670Z,85.10
2023-01-21T10:35:39.574Z,85.20
2023-01-21T10:38:13.333Z,85.20
2023-01-21T10:40:49.674Z,85.20
2023-01-21T10:43:29.020Z,85.10
2023-01-21T10:46:04.449Z,85.20
2023-01-21T10:48:40.042Z,85.20
2023-01-21T10:51:14.730Z,85.30
2023-01-21T10:53:48.933Z,85.30
2023-01-21T10:56:29.258Z,85.20
2023-01-21T10:59:01.689Z,85.20
2023-01-21T11:01:33.498Z,85.20
2023-01-21T11:04:06.869Z,85.10
2023-01-21T11:06:37.457Z,85.10
2023-01-21T11:09:08.171Z,85.20
2023-01-21T11:11:40.457Z,85.20
2023-01-21T11:14:08.756Z,85.10
2023-01-21T11:16:43.992Z,84.90
2023-01-21T11:19:17.142Z,85.70
2023-01-21T11:22:00.377Z,84.90
2023-01-21T11:24:29.635Z,84.90
2023-01-21T11:27:01.828Z,85.00
2023-01-21T11:29:41.837Z,84.90
2023-01-21T11:32:19.286Z,84.90
2023-01-21T11:34:49.445Z,84.90
2023-01-21T11:37:24.858Z,84.90
2023-01-21T11:39:56.827Z,84.70
2023-01-21T11:42:27.180Z,84.70
2023-01-21T11:44:57.589Z,84.70
2023-01-21T11:47:38.957Z,84.60
2023-01-21T11:50:17.398Z,84.70
2023-01-21T11:52:46.033Z,84.60
2023-01-21T11:55:23.033Z,84.60
2023-01-21T11:57:55.883Z,84.60
2023-01-21T12:00:27.068Z,84.60
2023-01-21T12:02:58.816Z,84.50
2023-01-21T12:05:33.431Z,85.50
2023-01-21T12:08:03.497Z,84.60
2023-01-21T12:10:34.363Z,84.50
2023-01-21T12:13:20.139Z,84.60
2023-01-21T12:16:14.537Z,84.50
2023-01-21T12:19:16.225Z,84.60
2023-01-21T12:22:06.756Z,84.40
2023-01-21T12:24:46.413Z,84.50
2023-01-21T12:27:25.296Z,84.50
2023-01-21T12:30:04.821Z,84.40
2023-01-21T12:32:37.336Z,84.40
2023-01-21T12:35:11.496Z,84.40
2023-01-21T12:37:46.947Z,84.50
2023-01-21T12:40:20.358Z,84.60
2023-01-21T12:42:54.943Z,84.60
2023-01-21T12:45:29.796Z,84.40
2023-01-21T12:48:03.820Z,84.50
2023-01-21T12:50:39.464Z,84.60
2023-01-21T12:53:20.433Z,84.60
2023-01-21T12:56:09.336Z,84.50
2023-01-21T12:58:40.907Z,84.70
2023-01-21T13:01:14.993Z,84.90
2023-01-21T13:03:51.421Z,85.00
2023-01-21T13:06:33.547Z,85.80
2023-01-21T13:09:17.174Z,85.00
2023-01-21T13:11:52.367Z,85.00
2023-01-21T13:14:27.778Z,85.00
2023-01-21T13:17:00.855Z,85.00
2023-01-21T13:19:29.110Z,85.00
2023-01-21T13:22:09.551Z,85.10
2023-01-21T13:24:57.152Z,85.10
2023-01-21T13:27:32.924Z,85.10
2023-01-21T13:30:09.318Z,85.20
2023-01-21T13:32:48.596Z,85.20
2023-01-21T13:35:26.625Z,85.30
2023-01-21T13:38:03.673Z,85.30
2023-01-21T13:40:42.091Z,85.50
2023-01-21T13:43:23.795Z,85.50
2023-01-21T13:46:01.361Z,85.50
2023-01-21T13:49:02.109Z,85.50
2023-01-21T13:51:44.569Z,85.60
2023-01-21T13:54:33.264Z,85.50
2023-01-21T13:57:17.822Z,85.50
2023-01-21T13:59:52.459Z,85.50
2023-01-21T14:02:24.890Z,85.60
2023-01-21T14:04:57.792Z,85.90
2023-01-21T14:07:29.415Z,85.50
2023-01-21T14:10:06.139Z,85.40
2023-01-21T14:12:52.672Z,85.50
2023-01-21T14:15:37.147Z,85.50
2023-01-21T14:18:20.417Z,85.60
2023-01-21T14:21:14.833Z,85.50
2023-01-21T14:23:56.468Z,85.50
2023-01-21T14:26:42.946Z,85.40
2023-01-21T14:29:17.161Z,85.60
2023-01-21T14:31:49.159Z,85.60
2023-01-21T14:34:24.166Z,86.40
2023-01-21T14:37:03.286Z,86.40
2023-01-21T14:39:39.265Z,85.50
2023-01-21T14:42:12.669Z,85.60
2023-01-21T14:44:45.364Z,85.60
2023-01-21T14:47:19.641Z,85.60
2023-01-21T14:49:49.603Z,85.60
2023-01-21T14:52:21.289Z,85.60
2023-01-21T14:54:50.328Z,85.60
2023-01-21T14:57:31.249Z,85.60
2023-01-21T15:00:20.476Z,85.60
2023-01-21T15:02:53.602Z,85.60
2023-01-21T15:05:26.742Z,85.60
2023-01-21T15:08:06.846Z,85.60
2023-01-21T15:10:38.403Z,85.60
2023-01-21T15:13:22.247Z,85.80
2023-01-21T15:16:06.710Z,85.80
2023-01-21T15:18:39.578Z,85.80
2023-01-21T15:21:34.393Z,85.80
2023-01-21T15:24:33.150Z,85.80
2023-01-21T15:27:15.053Z,85.90
2023-01-21T15:29:44.828Z,85.90
2023-01-21T15:32:33.075Z,85.80
2023-01-21T15:35:16.475Z,86.00
2023-01-21T15:37:47.122Z,86.00
2023-01-21T15:40:20.615Z,86.00
2023-01-21T15:42:55.428Z,86.10
2023-01-21T15:45:31.496Z,86.10
2023-01-21T15:48:17.519Z,86.10
2023-01-21T15:50:49.544Z,86.10
2023-01-21T15:53:33.612Z,86.10
2023-01-21T15:56:26.981Z,86.20
2023-01-21T15:59:05.344Z,86.10
2023-01-21T16:01:35.948Z,86.10
2023-01-21T16:04:22.157Z,86.20
2023-01-21T16:07:07.488Z,86.20
2023-01-21T16:09:48.563Z,86.30
2023-01-21T16:12:27.709Z,86.30
2023-01-21T16:15:02.573Z,86.40
2023-01-21T16:17:52.086Z,86.40
2023-01-21T16:20:20.427Z,86.50
2023-01-21T16:22:52.932Z,87.30
2023-01-21T16:25:24.362Z,86.50
2023-01-21T16:27:55.921Z,87.40
2023-01-21T16:30:28.387Z,86.50
2023-01-21T16:33:10.611Z,86.40
2023-01-21T16:35:47.182Z,86.40
2023-01-21T16:38:18.265Z,86.40
2023-01-21T16:40:48.417Z,86.40
2023-01-21T16:43:25.580Z,86.40
2023-01-21T16:45:56.328Z,87.30
2023-01-21T16:48:27.273Z,86.60
2023-01-21T16:50:55.815Z,86.50
2023-01-21T16:53:25.696Z,86.60
2023-01-21T16:55:55.887Z,86.60
2023-01-21T16:58:29.549Z,87.30
2023-01-21T17:01:07.363Z,86.40
2023-01-21T17:03:35.661Z,86.60
2023-01-21T17:06:08.504Z,86.60
2023-01-21T17:08:37.255Z,86.60
2023-01-21T17:11:09.580Z,86.60
2023-01-21T17:13:42.651Z,86.60
2023-01-21T17:16:21.027Z,86.70
2023-01-21T17:18:55.472Z,86.80
2023-01-21T17:21:35.524Z,86.90
2023-01-21T17:24:06.878Z,86.90
2023-01-21T17:26:38.396Z,86.70
2023-01-21T17:29:18.448Z,86.70
2023-01-21T17:31:54.841Z,86.70
2023-01-21T17:34:25.014Z,86.70
2023-01-21T17:36:54.916Z,86.70
2023-01-21T17:40:00.756Z,86.80
2023-01-21T17:42:41.599Z,86.80
2023-01-21T17:45:21.262Z,86.90
2023-01-21T17:48:08.672Z,86.80
2023-01-21T17:50:37.213Z,86.80
2023-01-21T17:53:09.989Z,86.90
2023-01-21T17:55:40.251Z,86.90
2023-01-21T17:58:57.552Z,86.90
2023-01-21T18:01:27.094Z,87.00
2023-01-21T18:03:55.270Z,87.80
2023-01-21T18:06:27.041Z,87.00
2023-01-21T18:08:57.240Z,87.00
2023-01-21T18:11:25.531Z,86.80
2023-01-21T18:13:53.798Z,86.80
2023-01-21T18:16:22.085Z,86.70
2023-01-21T18:18:54.058Z,86.70
2023-01-21T18:21:22.654Z,86.70
2023-01-21T18:23:51.251Z,86.70
2023-01-21T18:26:27.395Z,87.70
2023-01-21T18:28:55.673Z,87.70
2023-01-21T18:31:24.024Z,87.00
2023-01-21T18:33:53.790Z,86.90
2023-01-21T18:36:22.191Z,86.90
2023-01-21T18:38:50.445Z,86.90
2023-01-21T18:41:18.724Z,87.00
2023-01-21T18:43:46.939Z,87.00
2023-01-21T18:46:16.367Z,87.00
2023-01-21T18:48:44.743Z,87.10
2023-01-21T18:51:14.874Z,87.00
2023-01-21T18:53:43.300Z,87.10
2023-01-21T18:56:15.256Z,87.00
2023-01-21T18:58:43.657Z,87.90
2023-01-21T19:01:22.685Z,87.20
2023-01-21T19:03:54.582Z,87.10
2023-01-21T19:06:26.101Z,87.20
2023-01-21T19:08:55.208Z,87.00
2023-01-21T19:11:23.644Z,87.90
2023-01-21T19:13:51.970Z,87.20
2023-01-21T19:16:21.618Z,87.30
2023-01-21T19:18:49.944Z,87.20
2023-01-21T19:21:18.228Z,87.30
2023-01-21T19:23:48.019Z,87.20
2023-01-21T19:26:16.801Z,87.20
2023-01-21T19:28:45.078Z,87.30
2023-01-21T19:31:13.459Z,87.30
2023-01-21T19:33:45.483Z,87.30
2023-01-21T19:36:16.376Z,87.30
2023-01-21T19:38:49.866Z,87.30
2023-01-21T19:41:18.070Z,87.20
2023-01-21T19:43:46.309Z,87.30
2023-01-21T19:46:14.759Z,87.30
2023-01-21T19:48:43.088Z,87.30
2023-01-21T19:51:11.695Z,87.30
2023-01-21T19:53:39.893Z,87.60
2023-01-21T19:56:15.158Z,87.30
2023-01-21T19:58:43.612Z,87.30
2023-01-21T20:01:12.429Z,87.30
2023-01-21T20:03:54.800Z,87.30
2023-01-21T20:06:28.566Z,87.30
2023-01-21T20:08:56.830Z,87.30
2023-01-21T20:11:26.445Z,87.30
2023-01-21T20:13:54.679Z,87.30
2023-01-21T20:16:26.189Z,87.30
2023-01-21T20:18:56.221Z,87.30
2023-01-21T20:21:24.566Z,87.20
2023-01-21T20:23:52.880Z,87.10
2023-01-21T20:26:25.669Z,87.20
2023-01-21T20:28:55.683Z,87.20
2023-01-21T20:31:24.613Z,87.20
2023-01-21T20:33:52.952Z,87.20
2023-01-21T20:36:23.516Z,87.20
2023-01-21T20:38:52.376Z,87.00
2023-01-21T20:41:20.917Z,87.10
2023-01-21T20:43:49.187Z,87.00
2023-01-21T20:46:21.081Z,87.20
2023-01-21T20:48:51.708Z,87.10
2023-01-21T20:51:21.261Z,87.20
2023-01-21T20:53:49.561Z,87.20
2023-01-21T20:56:20.479Z,87.20
2023-01-21T20:58:49.094Z,87.20
2023-01-21T21:01:20.662Z,87.20
2023-01-21T21:03:49.633Z,87.20
2023-01-21T21:06:19.962Z,87.20
2023-01-21T21:08:48.599Z,87.20
2023-01-21T21:11:17.853Z,87.30
2023-01-21T21:13:48.353Z,87.30
2023-01-21T21:16:21.996Z,87.30
2023-01-21T21:18:50.819Z,87.20
2023-01-21T21:21:22.484Z,87.20
2023-01-21T21:23:52.335Z,87.20
2023-01-21T21:26:23.887Z,87.20
2023-01-21T21:28:54.614Z,87.20
2023-01-21T21:31:25.864Z,87.30
2023-01-21T21:33:54.299Z,87.20
2023-01-21T21:36:24.554Z,87.20
2023-01-21T21:38:55.391Z,88.10
2023-01-21T21:41:44.805Z,87.30
2023-01-21T21:44:13.699Z,87.30
2023-01-21T21:47:01.003Z,87.30
2023-01-21T21:49:30.449Z,87.40
2023-01-21T21:52:01.003Z,88.10
2023-01-21T21:54:29.319Z,87.30
2023-01-21T21:56:57.922Z,87.30
2023-01-21T21:59:26.226Z,87.30
2023-01-21T22:01:55.898Z,87.40
2023-01-21T22:04:24.168Z,87.30
2023-01-21T22:06:52.713Z,87.20
2023-01-21T22:09:21.133Z,87.20
2023-01-21T22:11:49.404Z,88.10
2023-01-21T22:14:18.047Z,87.20
2023-01-21T22:16:46.528Z,87.20
2023-01-21T22:19:16.378Z,87.20
2023-01-21T22:21:44.657Z,87.20
2023-01-21T22:24:13.069Z,87.30
2023-01-21T22:26:41.344Z,87.30
2023-01-21T22:29:09.546Z,87.30
2023-01-21T22:31:37.832Z,87.40
2023-01-21T22:34:06.347Z,87.30
2023-01-21T22:36:36.155Z,87.40
2023-01-21T22:39:04.572Z,87.30
2023-01-21T22:41:32.833Z,87.40
2023-01-21T22:44:01.083Z,87.40
2023-01-21T22:46:31.337Z,87.30
2023-01-21T22:48:59.602Z,87.30
2023-01-21T22:51:28.570Z,87.30
2023-01-21T22:54:00.119Z,87.40
2023-01-21T22:56:49.717Z,87.30
2023-01-21T22:59:16.553Z,87.40
2023-01-21T23:01:44.789Z,87.40
2023-01-21T23:04:13.127Z,87.30
2023-01-21T23:06:44.676Z,87.30
2023-01-21T23:09:16.326Z,87.30
2023-01-21T23:11:45.152Z,87.40
2023-01-21T23:14:13.682Z,87.40
2023-01-21T23:16:42.002Z,87.30
2023-01-21T23:19:10.257Z,87.40
2023-01-21T23:21:38.631Z,87.30
2023-01-21T23:24:07.632Z,87.30
2023-01-21T23:26:37.325Z,87.30
2023-01-21T23:29:05.671Z,87.30
2023-01-21T23:31:34.626Z,87.30
2023-01-21T23:34:03.462Z,87.30
2023-01-21T23:36:31.682Z,87.30
2023-01-21T23:38:59.907Z,87.40
2023-01-21T23:41:28.114Z,87.40
2023-01-21T23:44:00.970Z,87.30
2023-01-21T23:46:29.342Z,87.30
2023-01-21T23:48:57.664Z,87.30
2023-01-21T23:51:26.073Z,87.40
2023-01-21T23:53:54.354Z,87.40
2023-01-21T23:56:24.422Z,87.40
2023-01-21T23:58:53.116Z,87.30
